sensor_id;sensor_type;location;lat;lon;timestamp;P1;durP1;ratioP1;P2;durP2;ratioP2
58366;SDS011;57745;42.524;12.052;2023-05-10T00:02:23;6.60;;;5.22;;
58366;SDS011;57745;42.524;12.052;2023-05-10T00:04:49;6.55;;;5.50;;
58366;SDS011;57745;42.524;12.052;2023-05-10T00:07:15;6.50;;;5.68;;
58366;SDS011;57745;42.524;12.052;2023-05-10T00:09:42;7.45;;;5.65;;
58366;SDS011;57745;42.524;12.052;2023-05-10T00:12:08;7.75;;;4.90;;
58366;SDS011;57745;42.524;12.052;2023-05-10T00:14:33;6.85;;;5.45;;
58366;SDS011;57745;42.524;12.052;2023-05-10T00:16:59;5.75;;;4.75;;
58366;SDS011;57745;42.524;12.052;2023-05-10T00:19:25;5.68;;;4.65;;
58366;SDS011;57745;42.524;12.052;2023-05-10T00:21:50;6.57;;;4.90;;
58366;SDS011;57745;42.524;12.052;2023-05-10T00:24:16;5.65;;;4.70;;
58366;SDS011;57745;42.524;12.052;2023-05-10T00:26:41;5.00;;;4.15;;
58366;SDS011;57745;42.524;12.052;2023-05-10T00:29:08;6.78;;;4.40;;
58366;SDS011;57745;42.524;12.052;2023-05-10T00:31:33;5.25;;;4.30;;
58366;SDS011;57745;42.524;12.052;2023-05-10T00:33:59;4.95;;;3.63;;
58366;SDS011;57745;42.524;12.052;2023-05-10T00:36:24;5.65;;;4.05;;
58366;SDS011;57745;42.524;12.052;2023-05-10T00:38:50;7.03;;;4.20;;
58366;SDS011;57745;42.524;12.052;2023-05-10T00:41:15;7.63;;;4.20;;
58366;SDS011;57745;42.524;12.052;2023-05-10T00:43:41;8.05;;;4.35;;
58366;SDS011;57745;42.524;12.052;2023-05-10T00:46:07;6.38;;;4.00;;
58366;SDS011;57745;42.524;12.052;2023-05-10T00:48:32;7.65;;;3.90;;
58366;SDS011;57745;42.524;12.052;2023-05-10T00:50:58;4.50;;;3.83;;
58366;SDS011;57745;42.524;12.052;2023-05-10T00:53:25;4.85;;;3.70;;
58366;SDS011;57745;42.524;12.052;2023-05-10T00:55:51;4.80;;;4.30;;
58366;SDS011;57745;42.524;12.052;2023-05-10T00:58:17;6.00;;;4.65;;
58366;SDS011;57745;42.524;12.052;2023-05-10T01:00:42;4.38;;;3.97;;
58366;SDS011;57745;42.524;12.052;2023-05-10T01:03:10;4.50;;;4.00;;
58366;SDS011;57745;42.524;12.052;2023-05-10T01:05:36;5.38;;;3.90;;
58366;SDS011;57745;42.524;12.052;2023-05-10T01:08:02;5.28;;;3.97;;
58366;SDS011;57745;42.524;12.052;2023-05-10T01:10:27;5.70;;;4.10;;
58366;SDS011;57745;42.524;12.052;2023-05-10T01:12:55;4.25;;;3.85;;
58366;SDS011;57745;42.524;12.052;2023-05-10T01:15:21;5.32;;;3.97;;
58366;SDS011;57745;42.524;12.052;2023-05-10T01:17:47;5.75;;;4.15;;
58366;SDS011;57745;42.524;12.052;2023-05-10T01:20:13;5.85;;;4.30;;
58366;SDS011;57745;42.524;12.052;2023-05-10T01:32:02;6.40;;;4.32;;
58366;SDS011;57745;42.524;12.052;2023-05-10T01:34:35;6.10;;;4.30;;
58366;SDS011;57745;42.524;12.052;2023-05-10T01:37:09;6.18;;;4.47;;
58366;SDS011;57745;42.524;12.052;2023-05-10T01:39:45;5.93;;;4.40;;
58366;SDS011;57745;42.524;12.052;2023-05-10T01:42:23;7.10;;;4.45;;
58366;SDS011;57745;42.524;12.052;2023-05-10T01:47:30;6.00;;;4.60;;
58366;SDS011;57745;42.524;12.052;2023-05-10T01:49:59;6.15;;;4.45;;
58366;SDS011;57745;42.524;12.052;2023-05-10T01:52:34;7.35;;;4.60;;
58366;SDS011;57745;42.524;12.052;2023-05-10T01:55:11;5.95;;;4.40;;
58366;SDS011;57745;42.524;12.052;2023-05-10T01:57:40;8.68;;;4.65;;
58366;SDS011;57745;42.524;12.052;2023-05-10T02:00:08;7.35;;;4.70;;
58366;SDS011;57745;42.524;12.052;2023-05-10T02:02:39;6.18;;;4.38;;
58366;SDS011;57745;42.524;12.052;2023-05-10T02:05:07;5.90;;;4.57;;
58366;SDS011;57745;42.524;12.052;2023-05-10T02:07:35;5.05;;;4.28;;
58366;SDS011;57745;42.524;12.052;2023-05-10T02:10:02;7.45;;;5.25;;
58366;SDS011;57745;42.524;12.052;2023-05-10T02:12:29;9.05;;;4.97;;
58366;SDS011;57745;42.524;12.052;2023-05-10T02:14:57;8.35;;;4.80;;
58366;SDS011;57745;42.524;12.052;2023-05-10T02:17:26;7.07;;;4.82;;
58366;SDS011;57745;42.524;12.052;2023-05-10T02:19:53;5.82;;;4.93;;
58366;SDS011;57745;42.524;12.052;2023-05-10T02:22:20;8.40;;;5.13;;
58366;SDS011;57745;42.524;12.052;2023-05-10T02:24:47;9.57;;;5.10;;
58366;SDS011;57745;42.524;12.052;2023-05-10T02:27:14;6.85;;;4.78;;
58366;SDS011;57745;42.524;12.052;2023-05-10T02:29:42;7.40;;;5.10;;
58366;SDS011;57745;42.524;12.052;2023-05-10T02:32:09;8.30;;;4.88;;
58366;SDS011;57745;42.524;12.052;2023-05-10T02:34:36;6.47;;;5.00;;
58366;SDS011;57745;42.524;12.052;2023-05-10T02:37:02;5.25;;;4.70;;
58366;SDS011;57745;42.524;12.052;2023-05-10T02:39:28;8.65;;;5.03;;
58366;SDS011;57745;42.524;12.052;2023-05-10T02:41:55;5.93;;;4.93;;
58366;SDS011;57745;42.524;12.052;2023-05-10T02:44:22;7.78;;;5.38;;
58366;SDS011;57745;42.524;12.052;2023-05-10T02:46:48;5.97;;;5.05;;
58366;SDS011;57745;42.524;12.052;2023-05-10T02:49:14;7.68;;;5.30;;
58366;SDS011;57745;42.524;12.052;2023-05-10T02:51:41;6.53;;;4.93;;
58366;SDS011;57745;42.524;12.052;2023-05-10T02:54:15;6.13;;;4.82;;
58366;SDS011;57745;42.524;12.052;2023-05-10T02:56:50;6.57;;;5.40;;
58366;SDS011;57745;42.524;12.052;2023-05-10T02:59:18;8.60;;;4.90;;
58366;SDS011;57745;42.524;12.052;2023-05-10T03:01:44;9.10;;;5.18;;
58366;SDS011;57745;42.524;12.052;2023-05-10T03:04:10;6.20;;;4.60;;
58366;SDS011;57745;42.524;12.052;2023-05-10T03:06:35;7.32;;;4.95;;
58366;SDS011;57745;42.524;12.052;2023-05-10T03:09:01;6.10;;;4.85;;
58366;SDS011;57745;42.524;12.052;2023-05-10T03:15:03;7.38;;;5.60;;
58366;SDS011;57745;42.524;12.052;2023-05-10T03:17:30;8.25;;;6.38;;
58366;SDS011;57745;42.524;12.052;2023-05-10T03:20:08;6.97;;;5.05;;
58366;SDS011;57745;42.524;12.052;2023-05-10T03:22:47;6.72;;;5.57;;
58366;SDS011;57745;42.524;12.052;2023-05-10T03:25:16;7.38;;;5.40;;
58366;SDS011;57745;42.524;12.052;2023-05-10T03:27:44;9.38;;;5.65;;
58366;SDS011;57745;42.524;12.052;2023-05-10T03:30:11;7.60;;;5.22;;
58366;SDS011;57745;42.524;12.052;2023-05-10T03:32:38;7.20;;;5.25;;
58366;SDS011;57745;42.524;12.052;2023-05-10T03:35:10;6.18;;;5.25;;
58366;SDS011;57745;42.524;12.052;2023-05-10T03:37:37;7.53;;;5.22;;
58366;SDS011;57745;42.524;12.052;2023-05-10T03:40:02;7.53;;;5.68;;
58366;SDS011;57745;42.524;12.052;2023-05-10T03:42:28;7.75;;;5.45;;
58366;SDS011;57745;42.524;12.052;2023-05-10T03:44:54;7.72;;;5.90;;
58366;SDS011;57745;42.524;12.052;2023-05-10T03:47:20;9.05;;;5.68;;
58366;SDS011;57745;42.524;12.052;2023-05-10T03:49:45;7.38;;;5.20;;
58366;SDS011;57745;42.524;12.052;2023-05-10T03:52:11;8.10;;;6.03;;
58366;SDS011;57745;42.524;12.052;2023-05-10T03:54:37;7.05;;;5.45;;
58366;SDS011;57745;42.524;12.052;2023-05-10T03:57:02;8.18;;;5.78;;
58366;SDS011;57745;42.524;12.052;2023-05-10T03:59:28;6.25;;;4.85;;
58366;SDS011;57745;42.524;12.052;2023-05-10T04:01:54;6.85;;;5.28;;
58366;SDS011;57745;42.524;12.052;2023-05-10T04:04:19;8.15;;;5.85;;
58366;SDS011;57745;42.524;12.052;2023-05-10T04:06:46;10.57;;;5.93;;
58366;SDS011;57745;42.524;12.052;2023-05-10T04:09:11;10.15;;;6.20;;
58366;SDS011;57745;42.524;12.052;2023-05-10T04:11:37;7.57;;;5.72;;
58366;SDS011;57745;42.524;12.052;2023-05-10T04:14:02;9.80;;;5.57;;
58366;SDS011;57745;42.524;12.052;2023-05-10T04:16:28;8.63;;;5.38;;
58366;SDS011;57745;42.524;12.052;2023-05-10T04:18:53;7.85;;;5.30;;
58366;SDS011;57745;42.524;12.052;2023-05-10T04:21:19;9.38;;;5.35;;
58366;SDS011;57745;42.524;12.052;2023-05-10T04:23:44;6.78;;;5.18;;
58366;SDS011;57745;42.524;12.052;2023-05-10T04:26:10;6.22;;;5.13;;
58366;SDS011;57745;42.524;12.052;2023-05-10T04:28:35;6.20;;;5.10;;
58366;SDS011;57745;42.524;12.052;2023-05-10T04:31:09;6.45;;;5.35;;
58366;SDS011;57745;42.524;12.052;2023-05-10T04:33:35;10.60;;;6.05;;
58366;SDS011;57745;42.524;12.052;2023-05-10T04:36:01;6.93;;;5.20;;
58366;SDS011;57745;42.524;12.052;2023-05-10T04:38:27;12.63;;;5.85;;
58366;SDS011;57745;42.524;12.052;2023-05-10T04:40:53;10.55;;;5.78;;
58366;SDS011;57745;42.524;12.052;2023-05-10T04:43:19;11.55;;;5.53;;
58366;SDS011;57745;42.524;12.052;2023-05-10T04:45:45;8.27;;;4.50;;
58366;SDS011;57745;42.524;12.052;2023-05-10T04:48:10;8.10;;;5.25;;
58366;SDS011;57745;42.524;12.052;2023-05-10T04:50:36;7.68;;;4.65;;
58366;SDS011;57745;42.524;12.052;2023-05-10T04:53:02;6.72;;;4.68;;
58366;SDS011;57745;42.524;12.052;2023-05-10T04:55:27;5.05;;;4.55;;
58366;SDS011;57745;42.524;12.052;2023-05-10T04:57:54;6.47;;;4.60;;
58366;SDS011;57745;42.524;12.052;2023-05-10T05:00:21;4.95;;;4.30;;
58366;SDS011;57745;42.524;12.052;2023-05-10T05:02:47;8.52;;;4.35;;
58366;SDS011;57745;42.524;12.052;2023-05-10T05:05:12;5.88;;;4.28;;
58366;SDS011;57745;42.524;12.052;2023-05-10T05:07:38;6.22;;;4.20;;
58366;SDS011;57745;42.524;12.052;2023-05-10T05:10:07;5.45;;;3.92;;
58366;SDS011;57745;42.524;12.052;2023-05-10T05:12:35;6.50;;;3.40;;
58366;SDS011;57745;42.524;12.052;2023-05-10T05:15:01;6.72;;;4.05;;
58366;SDS011;57745;42.524;12.052;2023-05-10T05:17:26;5.72;;;3.53;;
58366;SDS011;57745;42.524;12.052;2023-05-10T05:19:52;5.50;;;3.78;;
58366;SDS011;57745;42.524;12.052;2023-05-10T05:22:17;4.70;;;3.40;;
58366;SDS011;57745;42.524;12.052;2023-05-10T05:24:44;6.60;;;2.90;;
58366;SDS011;57745;42.524;12.052;2023-05-10T05:27:10;5.43;;;3.13;;
58366;SDS011;57745;42.524;12.052;2023-05-10T05:29:35;5.72;;;3.70;;
58366;SDS011;57745;42.524;12.052;2023-05-10T05:32:00;4.90;;;2.80;;
58366;SDS011;57745;42.524;12.052;2023-05-10T05:34:26;4.88;;;2.53;;
58366;SDS011;57745;42.524;12.052;2023-05-10T05:36:52;4.20;;;3.25;;
58366;SDS011;57745;42.524;12.052;2023-05-10T05:39:17;4.05;;;2.80;;
58366;SDS011;57745;42.524;12.052;2023-05-10T05:41:44;3.25;;;2.58;;
58366;SDS011;57745;42.524;12.052;2023-05-10T05:44:09;3.55;;;2.72;;
58366;SDS011;57745;42.524;12.052;2023-05-10T05:46:35;4.72;;;3.25;;
58366;SDS011;57745;42.524;12.052;2023-05-10T05:49:00;3.55;;;2.72;;
58366;SDS011;57745;42.524;12.052;2023-05-10T05:51:26;5.22;;;3.25;;
58366;SDS011;57745;42.524;12.052;2023-05-10T05:53:51;5.63;;;2.85;;
58366;SDS011;57745;42.524;12.052;2023-05-10T05:56:17;5.22;;;3.28;;
58366;SDS011;57745;42.524;12.052;2023-05-10T05:58:49;5.18;;;2.90;;
58366;SDS011;57745;42.524;12.052;2023-05-10T06:01:14;6.38;;;3.55;;
58366;SDS011;57745;42.524;12.052;2023-05-10T06:03:40;4.57;;;3.28;;
58366;SDS011;57745;42.524;12.052;2023-05-10T06:06:05;5.25;;;2.97;;
58366;SDS011;57745;42.524;12.052;2023-05-10T06:08:30;8.18;;;3.33;;
58366;SDS011;57745;42.524;12.052;2023-05-10T06:10:56;3.58;;;2.80;;
58366;SDS011;57745;42.524;12.052;2023-05-10T06:13:21;6.63;;;2.90;;
58366;SDS011;57745;42.524;12.052;2023-05-10T06:15:47;4.45;;;2.90;;
58366;SDS011;57745;42.524;12.052;2023-05-10T06:18:12;3.58;;;3.03;;
58366;SDS011;57745;42.524;12.052;2023-05-10T06:20:37;4.00;;;2.67;;
58366;SDS011;57745;42.524;12.052;2023-05-10T06:23:03;6.07;;;3.08;;
58366;SDS011;57745;42.524;12.052;2023-05-10T06:25:28;4.85;;;2.90;;
58366;SDS011;57745;42.524;12.052;2023-05-10T06:27:54;3.92;;;2.60;;
58366;SDS011;57745;42.524;12.052;2023-05-10T06:30:23;5.82;;;2.50;;
58366;SDS011;57745;42.524;12.052;2023-05-10T06:32:52;3.97;;;2.55;;
58366;SDS011;57745;42.524;12.052;2023-05-10T06:35:18;5.60;;;2.50;;
58366;SDS011;57745;42.524;12.052;2023-05-10T06:37:44;6.30;;;2.97;;
58366;SDS011;57745;42.524;12.052;2023-05-10T06:40:09;5.60;;;2.60;;
58366;SDS011;57745;42.524;12.052;2023-05-10T06:42:35;5.10;;;2.60;;
58366;SDS011;57745;42.524;12.052;2023-05-10T06:45:00;4.63;;;2.58;;
58366;SDS011;57745;42.524;12.052;2023-05-10T06:47:26;7.57;;;2.50;;
58366;SDS011;57745;42.524;12.052;2023-05-10T06:49:51;3.03;;;2.30;;
58366;SDS011;57745;42.524;12.052;2023-05-10T06:52:16;2.80;;;1.90;;
58366;SDS011;57745;42.524;12.052;2023-05-10T06:54:42;4.82;;;2.22;;
58366;SDS011;57745;42.524;12.052;2023-05-10T06:57:07;5.13;;;2.10;;
58366;SDS011;57745;42.524;12.052;2023-05-10T06:59:32;6.40;;;2.35;;
58366;SDS011;57745;42.524;12.052;2023-05-10T07:01:58;3.38;;;2.15;;
58366;SDS011;57745;42.524;12.052;2023-05-10T07:04:23;2.80;;;2.10;;
58366;SDS011;57745;42.524;12.052;2023-05-10T07:06:49;5.35;;;2.00;;
58366;SDS011;57745;42.524;12.052;2023-05-10T07:09:15;3.03;;;1.77;;
58366;SDS011;57745;42.524;12.052;2023-05-10T07:11:41;3.60;;;1.92;;
58366;SDS011;57745;42.524;12.052;2023-05-10T07:14:06;2.97;;;1.52;;
58366;SDS011;57745;42.524;12.052;2023-05-10T07:16:32;4.75;;;1.90;;
58366;SDS011;57745;42.524;12.052;2023-05-10T07:18:57;3.50;;;1.60;;
58366;SDS011;57745;42.524;12.052;2023-05-10T07:21:23;4.15;;;1.85;;
58366;SDS011;57745;42.524;12.052;2023-05-10T07:23:53;5.40;;;1.80;;
58366;SDS011;57745;42.524;12.052;2023-05-10T07:26:19;6.30;;;2.15;;
58366;SDS011;57745;42.524;12.052;2023-05-10T07:28:45;6.40;;;2.15;;
58366;SDS011;57745;42.524;12.052;2023-05-10T07:31:11;4.47;;;1.75;;
58366;SDS011;57745;42.524;12.052;2023-05-10T07:33:36;4.15;;;1.90;;
58366;SDS011;57745;42.524;12.052;2023-05-10T07:36:02;3.42;;;1.60;;
58366;SDS011;57745;42.524;12.052;2023-05-10T07:38:27;4.38;;;1.65;;
58366;SDS011;57745;42.524;12.052;2023-05-10T07:40:53;3.58;;;1.70;;
58366;SDS011;57745;42.524;12.052;2023-05-10T07:43:18;5.03;;;2.53;;
58366;SDS011;57745;42.524;12.052;2023-05-10T07:45:43;6.13;;;2.10;;
58366;SDS011;57745;42.524;12.052;2023-05-10T07:48:09;4.45;;;1.70;;
58366;SDS011;57745;42.524;12.052;2023-05-10T07:50:34;8.23;;;2.95;;
58366;SDS011;57745;42.524;12.052;2023-05-10T07:53:00;3.85;;;1.38;;
58366;SDS011;57745;42.524;12.052;2023-05-10T07:55:25;1.88;;;1.40;;
58366;SDS011;57745;42.524;12.052;2023-05-10T07:57:51;4.03;;;1.50;;
58366;SDS011;57745;42.524;12.052;2023-05-10T08:00:17;4.18;;;1.50;;
58366;SDS011;57745;42.524;12.052;2023-05-10T08:02:43;2.63;;;1.58;;
58366;SDS011;57745;42.524;12.052;2023-05-10T08:05:09;3.47;;;1.48;;
58366;SDS011;57745;42.524;12.052;2023-05-10T08:07:35;3.10;;;1.58;;
58366;SDS011;57745;42.524;12.052;2023-05-10T08:10:01;3.35;;;1.30;;
58366;SDS011;57745;42.524;12.052;2023-05-10T08:12:27;4.32;;;2.08;;
58366;SDS011;57745;42.524;12.052;2023-05-10T08:14:52;4.35;;;1.70;;
58366;SDS011;57745;42.524;12.052;2023-05-10T08:17:18;7.13;;;2.15;;
58366;SDS011;57745;42.524;12.052;2023-05-10T08:19:43;3.30;;;1.77;;
58366;SDS011;57745;42.524;12.052;2023-05-10T08:22:09;3.55;;;1.58;;
58366;SDS011;57745;42.524;12.052;2023-05-10T08:24:35;3.33;;;1.75;;
58366;SDS011;57745;42.524;12.052;2023-05-10T08:27:03;3.88;;;2.03;;
58366;SDS011;57745;42.524;12.052;2023-05-10T08:29:30;3.50;;;1.98;;
58366;SDS011;57745;42.524;12.052;2023-05-10T08:31:55;3.67;;;1.95;;
58366;SDS011;57745;42.524;12.052;2023-05-10T08:34:20;3.10;;;1.70;;
58366;SDS011;57745;42.524;12.052;2023-05-10T08:36:46;5.63;;;1.60;;
58366;SDS011;57745;42.524;12.052;2023-05-10T08:39:11;4.32;;;1.75;;
58366;SDS011;57745;42.524;12.052;2023-05-10T08:41:37;3.72;;;1.50;;
58366;SDS011;57745;42.524;12.052;2023-05-10T08:44:04;2.60;;;1.27;;
58366;SDS011;57745;42.524;12.052;2023-05-10T08:46:33;4.95;;;1.27;;
58366;SDS011;57745;42.524;12.052;2023-05-10T08:49:04;2.45;;;1.20;;
58366;SDS011;57745;42.524;12.052;2023-05-10T08:51:32;2.00;;;1.00;;
58366;SDS011;57745;42.524;12.052;2023-05-10T08:54:02;2.30;;;1.20;;
58366;SDS011;57745;42.524;12.052;2023-05-10T08:56:29;3.42;;;1.02;;
58366;SDS011;57745;42.524;12.052;2023-05-10T08:58:54;2.08;;;1.00;;
58366;SDS011;57745;42.524;12.052;2023-05-10T09:01:21;2.75;;;0.82;;
58366;SDS011;57745;42.524;12.052;2023-05-10T09:03:48;4.40;;;0.98;;
58366;SDS011;57745;42.524;12.052;2023-05-10T09:06:15;1.35;;;0.70;;
58366;SDS011;57745;42.524;12.052;2023-05-10T09:08:41;2.00;;;0.80;;
58366;SDS011;57745;42.524;12.052;2023-05-10T09:11:08;2.03;;;0.95;;
58366;SDS011;57745;42.524;12.052;2023-05-10T09:13:35;3.22;;;0.95;;
58366;SDS011;57745;42.524;12.052;2023-05-10T09:16:00;2.35;;;0.98;;
58366;SDS011;57745;42.524;12.052;2023-05-10T09:18:27;2.85;;;0.77;;
58366;SDS011;57745;42.524;12.052;2023-05-10T09:20:53;3.53;;;1.10;;
58366;SDS011;57745;42.524;12.052;2023-05-10T09:23:18;3.58;;;1.30;;
58366;SDS011;57745;42.524;12.052;2023-05-10T09:25:43;4.88;;;2.33;;
58366;SDS011;57745;42.524;12.052;2023-05-10T09:28:09;3.45;;;2.17;;
58366;SDS011;57745;42.524;12.052;2023-05-10T09:30:35;2.60;;;2.20;;
58366;SDS011;57745;42.524;12.052;2023-05-10T09:33:01;2.80;;;1.73;;
58366;SDS011;57745;42.524;12.052;2023-05-10T09:35:27;2.63;;;1.00;;
58366;SDS011;57745;42.524;12.052;2023-05-10T09:37:56;5.55;;;1.10;;
58366;SDS011;57745;42.524;12.052;2023-05-10T09:40:24;7.22;;;3.92;;
58366;SDS011;57745;42.524;12.052;2023-05-10T09:42:52;9.90;;;5.93;;
58366;SDS011;57745;42.524;12.052;2023-05-10T09:45:27;7.18;;;4.47;;
58366;SDS011;57745;42.524;12.052;2023-05-10T09:47:54;4.30;;;2.63;;
58366;SDS011;57745;42.524;12.052;2023-05-10T09:50:20;7.18;;;5.47;;
58366;SDS011;57745;42.524;12.052;2023-05-10T09:52:47;31.90;;;20.92;;
58366;SDS011;57745;42.524;12.052;2023-05-10T09:55:16;18.20;;;13.10;;
58366;SDS011;57745;42.524;12.052;2023-05-10T09:57:42;16.58;;;10.95;;
58366;SDS011;57745;42.524;12.052;2023-05-10T10:00:08;16.58;;;14.85;;
58366;SDS011;57745;42.524;12.052;2023-05-10T10:02:38;11.00;;;8.57;;
58366;SDS011;57745;42.524;12.052;2023-05-10T10:05:05;5.90;;;5.18;;
58366;SDS011;57745;42.524;12.052;2023-05-10T10:07:31;4.03;;;3.00;;
58366;SDS011;57745;42.524;12.052;2023-05-10T10:09:58;3.35;;;2.55;;
58366;SDS011;57745;42.524;12.052;2023-05-10T10:12:24;2.67;;;2.30;;
58366;SDS011;57745;42.524;12.052;2023-05-10T10:14:50;4.65;;;2.00;;
58366;SDS011;57745;42.524;12.052;2023-05-10T10:17:16;6.75;;;3.10;;
58366;SDS011;57745;42.524;12.052;2023-05-10T10:19:42;3.65;;;3.10;;
58366;SDS011;57745;42.524;12.052;2023-05-10T10:22:08;4.05;;;3.22;;
58366;SDS011;57745;42.524;12.052;2023-05-10T10:24:36;6.80;;;4.32;;
58366;SDS011;57745;42.524;12.052;2023-05-10T10:29:47;9.18;;;5.13;;
58366;SDS011;57745;42.524;12.052;2023-05-10T10:32:42;4.55;;;3.17;;
58366;SDS011;57745;42.524;12.052;2023-05-10T10:35:13;5.10;;;2.90;;
58366;SDS011;57745;42.524;12.052;2023-05-10T10:37:45;3.80;;;2.35;;
58366;SDS011;57745;42.524;12.052;2023-05-10T10:40:28;3.08;;;1.95;;
58366;SDS011;57745;42.524;12.052;2023-05-10T10:42:58;2.60;;;1.50;;
58366;SDS011;57745;42.524;12.052;2023-05-10T10:48:38;3.05;;;2.28;;
58366;SDS011;57745;42.524;12.052;2023-05-10T10:51:04;3.00;;;2.00;;
58366;SDS011;57745;42.524;12.052;2023-05-10T10:53:29;3.97;;;1.77;;
58366;SDS011;57745;42.524;12.052;2023-05-10T10:56:13;6.25;;;1.80;;
58366;SDS011;57745;42.524;12.052;2023-05-10T10:58:40;2.58;;;1.80;;
58366;SDS011;57745;42.524;12.052;2023-05-10T11:01:16;1.52;;;1.33;;
58366;SDS011;57745;42.524;12.052;2023-05-10T11:06:40;6.70;;;2.40;;
58366;SDS011;57745;42.524;12.052;2023-05-10T11:09:08;4.07;;;2.25;;
58366;SDS011;57745;42.524;12.052;2023-05-10T11:11:35;3.85;;;1.85;;
58366;SDS011;57745;42.524;12.052;2023-05-10T11:14:13;6.07;;;2.33;;
58366;SDS011;57745;42.524;12.052;2023-05-10T11:16:41;2.90;;;1.55;;
58366;SDS011;57745;42.524;12.052;2023-05-10T11:19:11;3.67;;;1.70;;
58366;SDS011;57745;42.524;12.052;2023-05-10T11:21:48;5.85;;;1.40;;
58366;SDS011;57745;42.524;12.052;2023-05-10T11:24:16;3.88;;;1.48;;
58366;SDS011;57745;42.524;12.052;2023-05-10T11:26:43;2.80;;;1.65;;
58366;SDS011;57745;42.524;12.052;2023-05-10T11:29:08;6.88;;;3.03;;
58366;SDS011;57745;42.524;12.052;2023-05-10T11:31:34;5.20;;;2.60;;
58366;SDS011;57745;42.524;12.052;2023-05-10T11:34:00;7.55;;;3.10;;
58366;SDS011;57745;42.524;12.052;2023-05-10T11:36:31;6.40;;;2.58;;
58366;SDS011;57745;42.524;12.052;2023-05-10T11:38:59;3.95;;;1.92;;
58366;SDS011;57745;42.524;12.052;2023-05-10T11:41:26;5.55;;;2.35;;
58366;SDS011;57745;42.524;12.052;2023-05-10T11:43:53;4.85;;;1.73;;
58366;SDS011;57745;42.524;12.052;2023-05-10T11:46:19;5.40;;;2.50;;
58366;SDS011;57745;42.524;12.052;2023-05-10T11:48:49;2.85;;;2.03;;
58366;SDS011;57745;42.524;12.052;2023-05-10T11:51:23;4.57;;;1.90;;
58366;SDS011;57745;42.524;12.052;2023-05-10T11:56:17;4.80;;;2.55;;
58366;SDS011;57745;42.524;12.052;2023-05-10T11:58:43;6.22;;;2.35;;
58366;SDS011;57745;42.524;12.052;2023-05-10T12:01:08;5.97;;;2.10;;
58366;SDS011;57745;42.524;12.052;2023-05-10T12:03:36;6.35;;;1.90;;
58366;SDS011;57745;42.524;12.052;2023-05-10T12:06:02;4.53;;;1.80;;
58366;SDS011;57745;42.524;12.052;2023-05-10T12:08:29;3.95;;;1.70;;
58366;SDS011;57745;42.524;12.052;2023-05-10T12:11:05;3.38;;;1.98;;
58366;SDS011;57745;42.524;12.052;2023-05-10T12:13:32;4.50;;;1.80;;
58366;SDS011;57745;42.524;12.052;2023-05-10T12:16:11;7.50;;;1.95;;
58366;SDS011;57745;42.524;12.052;2023-05-10T12:18:44;4.05;;;1.38;;
58366;SDS011;57745;42.524;12.052;2023-05-10T12:21:11;7.90;;;1.77;;
58366;SDS011;57745;42.524;12.052;2023-05-10T12:23:37;4.00;;;1.40;;
58366;SDS011;57745;42.524;12.052;2023-05-10T12:26:05;4.22;;;1.63;;
58366;SDS011;57745;42.524;12.052;2023-05-10T12:28:33;3.78;;;1.42;;
58366;SDS011;57745;42.524;12.052;2023-05-10T12:30:59;5.75;;;1.70;;
58366;SDS011;57745;42.524;12.052;2023-05-10T12:33:25;5.75;;;1.90;;
58366;SDS011;57745;42.524;12.052;2023-05-10T12:35:51;6.25;;;1.80;;
58366;SDS011;57745;42.524;12.052;2023-05-10T12:38:37;4.82;;;2.33;;
58366;SDS011;57745;42.524;12.052;2023-05-10T12:41:08;5.00;;;1.60;;
58366;SDS011;57745;42.524;12.052;2023-05-10T12:43:35;8.05;;;2.22;;
58366;SDS011;57745;42.524;12.052;2023-05-10T12:46:05;4.50;;;1.60;;
58366;SDS011;57745;42.524;12.052;2023-05-10T12:48:34;4.35;;;1.60;;
58366;SDS011;57745;42.524;12.052;2023-05-10T12:51:01;2.20;;;1.65;;
58366;SDS011;57745;42.524;12.052;2023-05-10T12:53:28;4.93;;;1.70;;
58366;SDS011;57745;42.524;12.052;2023-05-10T12:55:54;5.88;;;1.63;;
58366;SDS011;57745;42.524;12.052;2023-05-10T12:58:19;7.03;;;1.52;;
58366;SDS011;57745;42.524;12.052;2023-05-10T13:00:45;4.47;;;1.45;;
58366;SDS011;57745;42.524;12.052;2023-05-10T13:03:11;6.50;;;2.15;;
58366;SDS011;57745;42.524;12.052;2023-05-10T13:05:36;4.20;;;1.58;;
58366;SDS011;57745;42.524;12.052;2023-05-10T13:08:02;5.68;;;1.73;;
58366;SDS011;57745;42.524;12.052;2023-05-10T13:10:29;5.63;;;2.30;;
58366;SDS011;57745;42.524;12.052;2023-05-10T13:12:55;5.93;;;1.85;;
58366;SDS011;57745;42.524;12.052;2023-05-10T13:15:22;5.15;;;1.58;;
58366;SDS011;57745;42.524;12.052;2023-05-10T13:17:47;4.53;;;1.80;;
58366;SDS011;57745;42.524;12.052;2023-05-10T13:20:13;3.58;;;1.45;;
58366;SDS011;57745;42.524;12.052;2023-05-10T13:22:38;6.97;;;2.22;;
58366;SDS011;57745;42.524;12.052;2023-05-10T13:25:04;3.47;;;1.30;;
58366;SDS011;57745;42.524;12.052;2023-05-10T13:27:29;3.53;;;1.50;;
58366;SDS011;57745;42.524;12.052;2023-05-10T13:29:55;4.95;;;2.00;;
58366;SDS011;57745;42.524;12.052;2023-05-10T13:32:20;3.83;;;1.40;;
58366;SDS011;57745;42.524;12.052;2023-05-10T13:34:46;6.47;;;1.98;;
58366;SDS011;57745;42.524;12.052;2023-05-10T13:37:11;5.78;;;2.10;;
58366;SDS011;57745;42.524;12.052;2023-05-10T13:39:37;6.20;;;2.30;;
58366;SDS011;57745;42.524;12.052;2023-05-10T13:42:03;5.25;;;1.90;;
58366;SDS011;57745;42.524;12.052;2023-05-10T13:44:29;8.20;;;2.45;;
58366;SDS011;57745;42.524;12.052;2023-05-10T13:46:55;8.88;;;4.13;;
58366;SDS011;57745;42.524;12.052;2023-05-10T13:49:21;4.82;;;2.70;;
58366;SDS011;57745;42.524;12.052;2023-05-10T13:51:47;7.32;;;2.58;;
58366;SDS011;57745;42.524;12.052;2023-05-10T13:54:12;7.80;;;2.40;;
58366;SDS011;57745;42.524;12.052;2023-05-10T13:56:38;5.10;;;1.98;;
58366;SDS011;57745;42.524;12.052;2023-05-10T13:59:05;8.48;;;2.13;;
58366;SDS011;57745;42.524;12.052;2023-05-10T14:01:31;4.35;;;2.00;;
58366;SDS011;57745;42.524;12.052;2023-05-10T14:03:56;5.93;;;1.50;;
58366;SDS011;57745;42.524;12.052;2023-05-10T14:06:22;5.10;;;1.75;;
58366;SDS011;57745;42.524;12.052;2023-05-10T14:08:47;5.55;;;1.90;;
58366;SDS011;57745;42.524;12.052;2023-05-10T14:11:13;5.28;;;1.63;;
58366;SDS011;57745;42.524;12.052;2023-05-10T14:13:38;5.82;;;1.38;;
58366;SDS011;57745;42.524;12.052;2023-05-10T14:16:04;8.32;;;1.70;;
58366;SDS011;57745;42.524;12.052;2023-05-10T14:18:30;5.57;;;1.80;;
58366;SDS011;57745;42.524;12.052;2023-05-10T14:20:55;5.63;;;1.83;;
58366;SDS011;57745;42.524;12.052;2023-05-10T14:23:21;4.47;;;1.70;;
58366;SDS011;57745;42.524;12.052;2023-05-10T14:25:51;7.38;;;1.60;;
58366;SDS011;57745;42.524;12.052;2023-05-10T14:28:17;6.10;;;1.70;;
58366;SDS011;57745;42.524;12.052;2023-05-10T14:30:43;5.03;;;1.40;;
58366;SDS011;57745;42.524;12.052;2023-05-10T14:33:09;5.03;;;1.70;;
58366;SDS011;57745;42.524;12.052;2023-05-10T14:35:35;7.88;;;1.50;;
58366;SDS011;57745;42.524;12.052;2023-05-10T14:38:01;7.82;;;1.60;;
58366;SDS011;57745;42.524;12.052;2023-05-10T14:40:28;6.35;;;1.42;;
58366;SDS011;57745;42.524;12.052;2023-05-10T14:42:54;4.95;;;2.15;;
58366;SDS011;57745;42.524;12.052;2023-05-10T14:45:20;6.95;;;2.03;;
58366;SDS011;57745;42.524;12.052;2023-05-10T14:47:46;7.55;;;1.90;;
58366;SDS011;57745;42.524;12.052;2023-05-10T14:50:11;4.70;;;1.30;;
58366;SDS011;57745;42.524;12.052;2023-05-10T14:52:36;5.50;;;1.88;;
58366;SDS011;57745;42.524;12.052;2023-05-10T14:55:02;4.50;;;1.73;;
58366;SDS011;57745;42.524;12.052;2023-05-10T14:57:28;3.78;;;1.33;;
58366;SDS011;57745;42.524;12.052;2023-05-10T14:59:54;4.38;;;1.30;;